createdAt,value
2018-03-01T00:09:05.559Z,9.43
2018-03-01T00:19:22.443Z,26.10
2018-03-01T00:29:31.964Z,21.67
2018-03-01T00:39:40.268Z,21.13
2018-03-01T00:49:52.969Z,20.87
2018-03-01T01:00:03.224Z,18.60
2018-03-01T01:10:13.475Z,18.20
2018-03-01T01:31:16.986Z,19.53
2018-03-01T01:42:09.949Z,19.37
2018-03-01T01:52:49.736Z,19.63
2018-03-01T02:03:25.103Z,19.60
2018-03-01T02:13:33.687Z,18.57
2018-03-01T02:23:44.408Z,19.10
2018-03-01T02:33:56.054Z,17.50
2018-03-01T02:44:06.857Z,16.57
2018-03-01T02:54:20.407Z,16.67
2018-03-01T03:04:30.504Z,15.60
2018-03-01T03:14:43.188Z,14.47
2018-03-01T03:25:15.207Z,15.90
2018-03-01T03:35:25.908Z,15.43
2018-03-01T03:45:36.557Z,14.87
2018-03-01T04:17:45.556Z,15.60
2018-03-01T04:27:59.192Z,17.40
2018-03-01T04:38:12.286Z,15.50
2018-03-01T04:48:23.199Z,14.50
2018-03-01T04:58:34.907Z,13.90
2018-03-01T05:08:49.052Z,14.33
2018-03-01T05:19:01.587Z,14.33
2018-03-01T05:29:10.372Z,15.73
2018-03-01T05:39:20.047Z,15.33
2018-03-01T05:49:31.176Z,16.83
2018-03-01T05:59:44.866Z,15.80
2018-03-01T06:09:54.094Z,16.00
2018-03-01T06:20:02.823Z,15.73
2018-03-01T06:30:11.997Z,15.40
2018-03-01T06:40:23.165Z,14.83
2018-03-01T06:50:34.178Z,15.43
2018-03-01T07:00:49.475Z,17.23
2018-03-01T07:10:59.788Z,15.27
2018-03-01T07:21:09.038Z,16.00
2018-03-01T07:31:18.276Z,15.50
2018-03-01T07:41:27.858Z,14.37
2018-03-01T07:51:36.951Z,15.30
2018-03-01T08:01:53.097Z,15.67
2018-03-01T08:12:01.634Z,15.73
2018-03-01T08:22:10.242Z,15.30
2018-03-01T08:32:24.948Z,15.73
2018-03-01T08:42:37.796Z,15.90
2018-03-01T08:52:46.852Z,15.50
2018-03-01T09:02:56.163Z,16.80
2018-03-01T09:13:07.975Z,17.17
2018-03-01T09:23:16.896Z,16.67
2018-03-01T09:33:29.496Z,17.40
2018-03-01T09:43:38.705Z,21.27
2018-03-01T09:53:47.820Z,16.27
2018-03-01T10:03:56.249Z,17.13
2018-03-01T10:14:06.748Z,15.40
2018-03-01T10:24:14.969Z,14.73
2018-03-01T10:34:24.284Z,18.00
2018-03-01T10:44:35.283Z,15.13
2018-03-01T10:54:44.701Z,13.70
2018-03-01T11:04:53.619Z,14.90
2018-03-01T11:15:02.581Z,14.20
2018-03-01T11:25:11.257Z,13.17
2018-03-01T11:35:21.313Z,12.30
2018-03-01T11:45:32.324Z,13.47
2018-03-01T11:55:42.122Z,12.00
2018-03-01T12:05:55.039Z,12.37
2018-03-01T12:16:07.289Z,11.90
2018-03-01T12:26:20.099Z,11.77
2018-03-01T12:36:33.119Z,12.57
2018-03-01T12:46:44.304Z,11.57
2018-03-01T12:56:55.046Z,11.73
2018-03-01T13:07:06.279Z,11.33
2018-03-01T13:17:14.853Z,11.47
2018-03-01T13:27:26.991Z,11.07
2018-03-01T13:37:36.320Z,11.23
2018-03-01T13:47:46.763Z,13.20
2018-03-01T14:12:31.402Z,10.40
2018-03-01T14:22:45.899Z,9.87
2018-03-01T14:32:59.407Z,10.20
2018-03-01T14:43:08.792Z,10.17
2018-03-01T14:53:20.944Z,10.43
2018-03-01T15:03:33.912Z,10.73
2018-03-01T15:13:44.667Z,12.63
2018-03-01T15:23:55.923Z,12.60
2018-03-01T15:34:12.026Z,9.13
2018-03-01T15:44:23.077Z,9.70
2018-03-01T15:54:32.361Z,9.50
2018-03-01T16:04:43.833Z,9.43
2018-03-01T16:14:53.145Z,9.30
2018-03-01T16:25:01.732Z,8.63
2018-03-01T16:35:12.817Z,9.03
2018-03-01T16:45:25.875Z,8.80
2018-03-01T16:55:34.910Z,9.77
2018-03-01T17:05:44.866Z,8.53
2018-03-01T17:15:53.800Z,7.77
2018-03-01T17:26:04.683Z,8.00
2018-03-01T17:36:13.114Z,8.40
2018-03-01T17:46:30.900Z,7.60
2018-03-01T17:56:40.754Z,7.10
2018-03-01T18:06:50.665Z,7.23
2018-03-01T18:16:59.175Z,7.70
2018-03-01T18:27:09.993Z,7.50
2018-03-01T18:37:19.999Z,6.87
2018-03-01T18:47:31.131Z,7.67
2018-03-01T18:58:12.164Z,6.93
2018-03-01T19:08:21.054Z,7.27
2018-03-01T19:18:30.355Z,6.53
2018-03-01T19:28:40.722Z,7.43
2018-03-01T19:38:49.242Z,7.43
2018-03-01T19:49:00.761Z,5.93
2018-03-01T19:59:10.738Z,6.83
2018-03-01T20:09:18.713Z,6.60
2018-03-01T20:19:29.255Z,5.87
2018-03-01T20:29:38.488Z,5.93
2018-03-01T20:39:47.913Z,6.07
2018-03-01T20:49:56.161Z,6.13
2018-03-01T21:00:05.408Z,8.17
2018-03-01T21:10:16.168Z,8.03
2018-03-01T21:20:26.214Z,8.43
2018-03-01T21:30:34.190Z,8.93
2018-03-01T21:40:44.426Z,5.93
2018-03-01T21:50:53.334Z,7.00
2018-03-01T22:01:02.963Z,5.43
2018-03-01T22:11:12.824Z,5.80
2018-03-01T22:21:27.005Z,6.83
2018-03-01T22:31:35.111Z,5.73
2018-03-01T22:41:43.790Z,5.20
2018-03-01T22:51:54.705Z,4.93
2018-03-01T23:02:02.868Z,7.60
2018-03-01T23:12:10.899Z,7.30
2018-03-01T23:22:22.330Z,6.87
2018-03-01T23:32:33.931Z,8.93
2018-03-01T23:42:43.044Z,6.73
2018-03-01T23:52:54.855Z,8.23
